sensor_id;sensor_type;location;lat;lon;timestamp;pressure;altitude;pressure_sealevel;temperature;humidity
51067;BME280;37112;45.892;-123.962;2022-08-01T00:00:10;101306.11;;;18.42;75.04
51067;BME280;37112;45.892;-123.962;2022-08-01T00:02:43;101308.73;;;18.43;75.06
51067;BME280;37112;45.892;-123.962;2022-08-01T00:04:58;101312.95;;;18.44;75.05
51067;BME280;37112;45.892;-123.962;2022-08-01T00:07:10;101314.19;;;18.38;74.63
51067;BME280;37112;45.892;-123.962;2022-08-01T00:09:24;101314.42;;;18.32;74.62
51067;BME280;37112;45.892;-123.962;2022-08-01T00:11:36;101312.97;;;18.26;74.89
51067;BME280;37112;45.892;-123.962;2022-08-01T00:13:50;101314.56;;;18.18;74.54
51067;BME280;37112;45.892;-123.962;2022-08-01T00:16:03;101318.94;;;18.07;75.17
51067;BME280;37112;45.892;-123.962;2022-08-01T00:18:16;101323.77;;;18.02;75.30
51067;BME280;37112;45.892;-123.962;2022-08-01T00:20:29;101321.56;;;18.00;75.62
51067;BME280;37112;45.892;-123.962;2022-08-01T00:22:42;101319.89;;;17.91;75.80
51067;BME280;37112;45.892;-123.962;2022-08-01T00:24:55;101321.84;;;17.83;76.30
51067;BME280;37112;45.892;-123.962;2022-08-01T00:27:08;101334.34;;;17.78;76.41
51067;BME280;37112;45.892;-123.962;2022-08-01T00:29:21;101334.47;;;17.74;76.86
51067;BME280;37112;45.892;-123.962;2022-08-01T00:31:55;101337.84;;;17.68;77.08
51067;BME280;37112;45.892;-123.962;2022-08-01T00:34:08;101343.70;;;17.63;77.51
51067;BME280;37112;45.892;-123.962;2022-08-01T00:36:21;101346.29;;;17.62;77.88
51067;BME280;37112;45.892;-123.962;2022-08-01T00:38:35;101346.15;;;17.68;78.27
51067;BME280;37112;45.892;-123.962;2022-08-01T00:40:48;101338.14;;;17.63;78.05
51067;BME280;37112;45.892;-123.962;2022-08-01T00:43:01;101342.73;;;17.60;78.57
51067;BME280;37112;45.892;-123.962;2022-08-01T00:45:14;101345.45;;;17.53;78.87
51067;BME280;37112;45.892;-123.962;2022-08-01T00:47:27;101346.86;;;17.51;79.04
51067;BME280;37112;45.892;-123.962;2022-08-01T00:49:40;101342.20;;;17.51;79.57
51067;BME280;37112;45.892;-123.962;2022-08-01T00:51:54;101343.58;;;17.54;79.67
51067;BME280;37112;45.892;-123.962;2022-08-01T00:54:07;101341.00;;;17.53;79.78
51067;BME280;37112;45.892;-123.962;2022-08-01T00:56:27;101340.51;;;17.52;79.98
51067;BME280;37112;45.892;-123.962;2022-08-01T00:58:40;101335.84;;;17.50;79.94
51067;BME280;37112;45.892;-123.962;2022-08-01T01:00:54;101337.08;;;17.46;80.10
51067;BME280;37112;45.892;-123.962;2022-08-01T01:03:11;101333.99;;;17.38;80.74
51067;BME280;37112;45.892;-123.962;2022-08-01T01:05:24;101335.86;;;17.37;80.80
51067;BME280;37112;45.892;-123.962;2022-08-01T01:07:40;101332.74;;;17.38;80.99
51067;BME280;37112;45.892;-123.962;2022-08-01T01:10:02;101320.98;;;17.37;80.93
51067;BME280;37112;45.892;-123.962;2022-08-01T01:12:22;101320.83;;;17.33;81.00
51067;BME280;37112;45.892;-123.962;2022-08-01T01:14:41;101325.19;;;17.30;81.50
51067;BME280;37112;45.892;-123.962;2022-08-01T01:16:57;101327.08;;;17.29;81.70
51067;BME280;37112;45.892;-123.962;2022-08-01T01:19:13;101328.67;;;17.31;81.84
51067;BME280;37112;45.892;-123.962;2022-08-01T01:21:54;101326.13;;;17.36;81.79
51067;BME280;37112;45.892;-123.962;2022-08-01T01:24:15;101326.34;;;17.38;81.70
51067;BME280;37112;45.892;-123.962;2022-08-01T01:26:40;101318.89;;;17.30;81.75
51067;BME280;37112;45.892;-123.962;2022-08-01T01:29:03;101313.93;;;17.23;81.93
51067;BME280;37112;45.892;-123.962;2022-08-01T01:31:19;101309.26;;;17.17;82.35
51067;BME280;37112;45.892;-123.962;2022-08-01T01:33:35;101304.80;;;17.13;83.01
51067;BME280;37112;45.892;-123.962;2022-08-01T01:36:01;101311.23;;;17.21;83.57
51067;BME280;37112;45.892;-123.962;2022-08-01T01:38:21;101321.45;;;17.34;83.56
51067;BME280;37112;45.892;-123.962;2022-08-01T01:40:36;101327.83;;;17.35;82.47
51067;BME280;37112;45.892;-123.962;2022-08-01T01:42:50;101329.05;;;17.37;82.69
51067;BME280;37112;45.892;-123.962;2022-08-01T01:45:05;101332.82;;;17.46;82.72
51067;BME280;37112;45.892;-123.962;2022-08-01T01:47:19;101328.45;;;17.52;82.67
51067;BME280;37112;45.892;-123.962;2022-08-01T01:49:34;101325.86;;;17.53;82.20
51067;BME280;37112;45.892;-123.962;2022-08-01T01:51:48;101324.75;;;17.54;82.10
51067;BME280;37112;45.892;-123.962;2022-08-01T01:54:11;101318.30;;;17.56;82.18
51067;BME280;37112;45.892;-123.962;2022-08-01T01:56:25;101320.85;;;17.62;82.06
51067;BME280;37112;45.892;-123.962;2022-08-01T01:58:40;101320.48;;;17.64;82.02
51067;BME280;37112;45.892;-123.962;2022-08-01T02:00:56;101320.57;;;17.65;81.80
51067;BME280;37112;45.892;-123.962;2022-08-01T02:03:12;101312.89;;;17.62;81.52
51067;BME280;37112;45.892;-123.962;2022-08-01T02:05:27;101304.48;;;17.60;81.36
51067;BME280;37112;45.892;-123.962;2022-08-01T02:07:41;101295.33;;;17.58;81.49
51067;BME280;37112;45.892;-123.962;2022-08-01T02:09:58;101294.48;;;17.57;81.49
51067;BME280;37112;45.892;-123.962;2022-08-01T02:12:14;101295.98;;;17.54;81.39
51067;BME280;37112;45.892;-123.962;2022-08-01T02:14:29;101291.90;;;17.54;81.48
51067;BME280;37112;45.892;-123.962;2022-08-01T02:16:44;101287.96;;;17.53;81.49
51067;BME280;37112;45.892;-123.962;2022-08-01T02:18:57;101289.94;;;17.53;81.53
51067;BME280;37112;45.892;-123.962;2022-08-01T02:21:12;101296.86;;;17.52;81.58
51067;BME280;37112;45.892;-123.962;2022-08-01T02:23:27;101300.69;;;17.56;81.83
51067;BME280;37112;45.892;-123.962;2022-08-01T02:25:43;101306.06;;;17.56;81.73
51067;BME280;37112;45.892;-123.962;2022-08-01T02:28:23;101312.14;;;17.54;81.71
51067;BME280;37112;45.892;-123.962;2022-08-01T02:30:40;101318.12;;;17.53;81.76
51067;BME280;37112;45.892;-123.962;2022-08-01T02:33:01;101321.57;;;17.53;81.76
51067;BME280;37112;45.892;-123.962;2022-08-01T02:35:26;101323.31;;;17.45;81.09
51067;BME280;37112;45.892;-123.962;2022-08-01T02:37:40;101324.79;;;17.37;81.02
51067;BME280;37112;45.892;-123.962;2022-08-01T02:39:56;101332.48;;;17.33;81.17
51067;BME280;37112;45.892;-123.962;2022-08-01T02:42:10;101339.92;;;17.30;81.36
51067;BME280;37112;45.892;-123.962;2022-08-01T02:44:26;101341.36;;;17.28;81.10
51067;BME280;37112;45.892;-123.962;2022-08-01T02:46:43;101333.13;;;17.25;81.30
51067;BME280;37112;45.892;-123.962;2022-08-01T02:49:03;101332.02;;;17.26;81.44
51067;BME280;37112;45.892;-123.962;2022-08-01T02:51:18;101338.73;;;17.23;81.31
51067;BME280;37112;45.892;-123.962;2022-08-01T02:53:34;101346.55;;;17.18;81.11
51067;BME280;37112;45.892;-123.962;2022-08-01T02:55:53;101347.48;;;17.09;80.98
51067;BME280;37112;45.892;-123.962;2022-08-01T02:58:07;101351.77;;;16.96;80.75
51067;BME280;37112;45.892;-123.962;2022-08-01T03:00:26;101359.45;;;16.82;80.77
51067;BME280;37112;45.892;-123.962;2022-08-01T03:02:40;101359.23;;;16.72;80.89
51067;BME280;37112;45.892;-123.962;2022-08-01T03:04:54;101359.66;;;16.64;81.13
51067;BME280;37112;45.892;-123.962;2022-08-01T03:07:10;101362.89;;;16.55;81.06
51067;BME280;37112;45.892;-123.962;2022-08-01T03:09:24;101360.69;;;16.49;81.50
51067;BME280;37112;45.892;-123.962;2022-08-01T03:11:38;101357.09;;;16.45;81.60
51067;BME280;37112;45.892;-123.962;2022-08-01T03:13:54;101363.97;;;16.42;81.80
51067;BME280;37112;45.892;-123.962;2022-08-01T03:16:10;101369.79;;;16.39;81.68
51067;BME280;37112;45.892;-123.962;2022-08-01T03:18:26;101371.87;;;16.37;81.97
51067;BME280;37112;45.892;-123.962;2022-08-01T03:20:40;101371.95;;;16.40;82.41
51067;BME280;37112;45.892;-123.962;2022-08-01T03:22:55;101367.16;;;16.40;82.09
51067;BME280;37112;45.892;-123.962;2022-08-01T03:25:10;101362.80;;;16.39;82.09
51067;BME280;37112;45.892;-123.962;2022-08-01T03:27:26;101354.27;;;16.38;82.19
51067;BME280;37112;45.892;-123.962;2022-08-01T03:29:39;101340.20;;;16.37;82.36
51067;BME280;37112;45.892;-123.962;2022-08-01T03:31:54;101332.58;;;16.36;82.59
51067;BME280;37112;45.892;-123.962;2022-08-01T03:34:09;101332.60;;;16.37;82.86
51067;BME280;37112;45.892;-123.962;2022-08-01T03:36:24;101336.62;;;16.39;83.00
51067;BME280;37112;45.892;-123.962;2022-08-01T03:38:40;101336.12;;;16.40;83.19
51067;BME280;37112;45.892;-123.962;2022-08-01T03:40:56;101336.60;;;16.39;83.10
51067;BME280;37112;45.892;-123.962;2022-08-01T03:43:14;101333.10;;;16.36;83.07
51067;BME280;37112;45.892;-123.962;2022-08-01T03:45:39;101334.33;;;16.32;83.11
51067;BME280;37112;45.892;-123.962;2022-08-01T03:47:56;101333.89;;;16.28;83.19
51067;BME280;37112;45.892;-123.962;2022-08-01T03:50:13;101332.05;;;16.25;83.35
51067;BME280;37112;45.892;-123.962;2022-08-01T03:52:27;101323.81;;;16.18;83.22
51067;BME280;37112;45.892;-123.962;2022-08-01T03:54:46;101318.59;;;16.12;83.38
51067;BME280;37112;45.892;-123.962;2022-08-01T03:56:59;101317.67;;;16.08;83.46
51067;BME280;37112;45.892;-123.962;2022-08-01T03:59:13;101317.37;;;16.09;83.97
51067;BME280;37112;45.892;-123.962;2022-08-01T04:01:27;101317.91;;;16.14;84.38
51067;BME280;37112;45.892;-123.962;2022-08-01T04:03:40;101305.96;;;16.15;84.63
51067;BME280;37112;45.892;-123.962;2022-08-01T04:05:54;101297.75;;;16.15;84.60
51067;BME280;37112;45.892;-123.962;2022-08-01T04:08:07;101301.46;;;16.15;84.58
51067;BME280;37112;45.892;-123.962;2022-08-01T04:10:20;101305.48;;;16.14;84.57
51067;BME280;37112;45.892;-123.962;2022-08-01T04:12:33;101308.69;;;16.13;84.62
51067;BME280;37112;45.892;-123.962;2022-08-01T04:14:47;101308.51;;;16.08;84.66
51067;BME280;37112;45.892;-123.962;2022-08-01T04:17:00;101310.89;;;16.03;85.01
51067;BME280;37112;45.892;-123.962;2022-08-01T04:19:14;101315.20;;;15.99;84.76
51067;BME280;37112;45.892;-123.962;2022-08-01T04:21:27;101316.59;;;15.95;84.79
51067;BME280;37112;45.892;-123.962;2022-08-01T04:23:43;101317.08;;;15.91;84.92
51067;BME280;37112;45.892;-123.962;2022-08-01T04:26:02;101319.77;;;15.86;84.97
51067;BME280;37112;45.892;-123.962;2022-08-01T04:28:18;101324.05;;;15.82;85.12
51067;BME280;37112;45.892;-123.962;2022-08-01T04:30:33;101332.17;;;15.77;85.13
51067;BME280;37112;45.892;-123.962;2022-08-01T04:32:48;101339.70;;;15.74;85.44
51067;BME280;37112;45.892;-123.962;2022-08-01T04:35:06;101342.54;;;15.70;85.49
51067;BME280;37112;45.892;-123.962;2022-08-01T04:37:41;101348.42;;;15.70;85.79
51067;BME280;37112;45.892;-123.962;2022-08-01T04:39:56;101356.87;;;15.72;86.00
51067;BME280;37112;45.892;-123.962;2022-08-01T04:42:12;101355.39;;;15.73;85.96
51067;BME280;37112;45.892;-123.962;2022-08-01T04:44:41;101355.09;;;15.72;85.78
51067;BME280;37112;45.892;-123.962;2022-08-01T04:46:56;101358.75;;;15.74;86.02
51067;BME280;37112;45.892;-123.962;2022-08-01T04:49:10;101366.74;;;15.76;86.24
51067;BME280;37112;45.892;-123.962;2022-08-01T04:51:25;101372.17;;;15.80;86.27
51067;BME280;37112;45.892;-123.962;2022-08-01T04:53:39;101377.58;;;15.82;86.22
51067;BME280;37112;45.892;-123.962;2022-08-01T04:55:52;101373.88;;;15.84;86.25
51067;BME280;37112;45.892;-123.962;2022-08-01T04:58:06;101373.64;;;15.87;86.41
51067;BME280;37112;45.892;-123.962;2022-08-01T05:00:25;101372.66;;;15.88;86.25
51067;BME280;37112;45.892;-123.962;2022-08-01T05:02:40;101378.08;;;15.87;86.29
51067;BME280;37112;45.892;-123.962;2022-08-01T05:04:53;101378.85;;;15.89;86.36
51067;BME280;37112;45.892;-123.962;2022-08-01T05:07:07;101379.56;;;15.89;86.23
51067;BME280;37112;45.892;-123.962;2022-08-01T05:09:21;101378.14;;;15.88;86.15
51067;BME280;37112;45.892;-123.962;2022-08-01T05:11:39;101389.05;;;15.89;86.00
51067;BME280;37112;45.892;-123.962;2022-08-01T05:13:52;101387.62;;;15.89;86.28
51067;BME280;37112;45.892;-123.962;2022-08-01T05:16:06;101392.13;;;15.91;86.45
51067;BME280;37112;45.892;-123.962;2022-08-01T05:18:19;101396.52;;;15.92;86.48
51067;BME280;37112;45.892;-123.962;2022-08-01T05:20:37;101398.28;;;15.92;86.47
51067;BME280;37112;45.892;-123.962;2022-08-01T05:22:50;101401.38;;;15.94;86.59
51067;BME280;37112;45.892;-123.962;2022-08-01T05:25:07;101408.20;;;15.96;86.73
51067;BME280;37112;45.892;-123.962;2022-08-01T05:27:23;101403.11;;;15.95;86.31
51067;BME280;37112;45.892;-123.962;2022-08-01T05:29:38;101404.41;;;15.92;86.32
51067;BME280;37112;45.892;-123.962;2022-08-01T05:31:53;101407.11;;;15.94;86.66
51067;BME280;37112;45.892;-123.962;2022-08-01T05:34:07;101410.48;;;15.97;86.87
51067;BME280;37112;45.892;-123.962;2022-08-01T05:36:23;101417.75;;;16.00;86.97
51067;BME280;37112;45.892;-123.962;2022-08-01T05:38:35;101421.08;;;16.03;87.20
51067;BME280;37112;45.892;-123.962;2022-08-01T05:40:49;101427.19;;;16.07;87.13
51067;BME280;37112;45.892;-123.962;2022-08-01T05:43:02;101425.08;;;16.09;86.72
51067;BME280;37112;45.892;-123.962;2022-08-01T05:45:15;101423.95;;;16.07;86.36
51067;BME280;37112;45.892;-123.962;2022-08-01T05:47:29;101421.86;;;16.07;86.41
51067;BME280;37112;45.892;-123.962;2022-08-01T05:49:42;101423.26;;;16.07;86.49
51067;BME280;37112;45.892;-123.962;2022-08-01T05:51:55;101427.14;;;16.08;86.47
51067;BME280;37112;45.892;-123.962;2022-08-01T05:54:08;101425.95;;;16.05;86.14
51067;BME280;37112;45.892;-123.962;2022-08-01T05:56:21;101425.09;;;15.98;85.76
51067;BME280;37112;45.892;-123.962;2022-08-01T05:58:40;101424.08;;;15.92;85.64
51067;BME280;37112;45.892;-123.962;2022-08-01T06:00:53;101419.48;;;15.87;85.76
51067;BME280;37112;45.892;-123.962;2022-08-01T06:03:07;101409.56;;;15.83;85.77
51067;BME280;37112;45.892;-123.962;2022-08-01T06:05:21;101410.98;;;15.81;85.97
51067;BME280;37112;45.892;-123.962;2022-08-01T06:07:35;101405.15;;;15.80;86.10
51067;BME280;37112;45.892;-123.962;2022-08-01T06:09:50;101400.23;;;15.78;86.11
51067;BME280;37112;45.892;-123.962;2022-08-01T06:12:03;101394.11;;;15.79;86.39
51067;BME280;37112;45.892;-123.962;2022-08-01T06:14:17;101380.52;;;15.81;86.56
51067;BME280;37112;45.892;-123.962;2022-08-01T06:16:30;101376.86;;;15.82;86.51
51067;BME280;37112;45.892;-123.962;2022-08-01T06:18:43;101378.08;;;15.82;86.52
51067;BME280;37112;45.892;-123.962;2022-08-01T06:20:56;101374.83;;;15.85;86.69
51067;BME280;37112;45.892;-123.962;2022-08-01T06:23:09;101370.15;;;15.88;86.73
51067;BME280;37112;45.892;-123.962;2022-08-01T06:25:41;101368.71;;;15.90;86.83
51067;BME280;37112;45.892;-123.962;2022-08-01T06:27:54;101375.00;;;15.92;86.75
51067;BME280;37112;45.892;-123.962;2022-08-01T06:30:08;101383.89;;;15.93;86.74
51067;BME280;37112;45.892;-123.962;2022-08-01T06:32:21;101388.86;;;15.94;86.72
51067;BME280;37112;45.892;-123.962;2022-08-01T06:34:36;101391.14;;;15.94;86.59
51067;BME280;37112;45.892;-123.962;2022-08-01T06:36:49;101398.77;;;15.93;86.33
51067;BME280;37112;45.892;-123.962;2022-08-01T06:39:02;101409.52;;;15.91;86.35
51067;BME280;37112;45.892;-123.962;2022-08-01T06:41:15;101417.19;;;15.89;86.34
51067;BME280;37112;45.892;-123.962;2022-08-01T06:43:28;101426.77;;;15.87;86.39
51067;BME280;37112;45.892;-123.962;2022-08-01T06:45:41;101429.85;;;15.87;86.40
51067;BME280;37112;45.892;-123.962;2022-08-01T06:47:54;101426.85;;;15.86;86.46
51067;BME280;37112;45.892;-123.962;2022-08-01T06:50:09;101426.27;;;15.87;86.64
51067;BME280;37112;45.892;-123.962;2022-08-01T06:52:24;101434.16;;;15.89;86.87
51067;BME280;37112;45.892;-123.962;2022-08-01T06:54:37;101428.81;;;15.91;86.92
51067;BME280;37112;45.892;-123.962;2022-08-01T06:56:50;101416.98;;;15.94;86.98
51067;BME280;37112;45.892;-123.962;2022-08-01T06:59:03;101412.90;;;15.95;86.92
51067;BME280;37112;45.892;-123.962;2022-08-01T07:01:16;101415.20;;;15.95;86.79
51067;BME280;37112;45.892;-123.962;2022-08-01T07:03:30;101416.39;;;15.97;86.71
51067;BME280;37112;45.892;-123.962;2022-08-01T07:06:02;101412.21;;;15.97;86.86
51067;BME280;37112;45.892;-123.962;2022-08-01T07:08:15;101408.52;;;16.01;87.07
51067;BME280;37112;45.892;-123.962;2022-08-01T07:10:28;101403.86;;;16.03;87.03
51067;BME280;37112;45.892;-123.962;2022-08-01T07:12:42;101402.20;;;16.04;86.99
51067;BME280;37112;45.892;-123.962;2022-08-01T07:14:55;101395.69;;;16.05;86.80
51067;BME280;37112;45.892;-123.962;2022-08-01T07:17:08;101400.50;;;16.05;86.75
51067;BME280;37112;45.892;-123.962;2022-08-01T07:19:21;101406.92;;;16.05;86.67
51067;BME280;37112;45.892;-123.962;2022-08-01T07:21:34;101405.38;;;16.04;86.64
51067;BME280;37112;45.892;-123.962;2022-08-01T07:23:50;101405.36;;;16.05;86.61
51067;BME280;37112;45.892;-123.962;2022-08-01T07:26:05;101410.82;;;16.05;86.69
51067;BME280;37112;45.892;-123.962;2022-08-01T07:28:18;101416.80;;;16.07;86.81
51067;BME280;37112;45.892;-123.962;2022-08-01T07:30:31;101419.39;;;16.08;86.68
51067;BME280;37112;45.892;-123.962;2022-08-01T07:32:44;101418.52;;;16.08;86.62
51067;BME280;37112;45.892;-123.962;2022-08-01T07:34:58;101418.99;;;16.08;86.65
51067;BME280;37112;45.892;-123.962;2022-08-01T07:37:11;101422.55;;;16.09;86.60
51067;BME280;37112;45.892;-123.962;2022-08-01T07:39:24;101428.02;;;16.10;86.63
51067;BME280;37112;45.892;-123.962;2022-08-01T07:41:37;101429.22;;;16.11;86.76
51067;BME280;37112;45.892;-123.962;2022-08-01T07:44:10;101427.23;;;16.11;86.79
51067;BME280;37112;45.892;-123.962;2022-08-01T07:46:24;101428.05;;;16.12;86.68
51067;BME280;37112;45.892;-123.962;2022-08-01T07:48:37;101424.02;;;16.11;86.32
51067;BME280;37112;45.892;-123.962;2022-08-01T07:50:50;101419.08;;;16.09;86.07
51067;BME280;37112;45.892;-123.962;2022-08-01T07:53:03;101421.91;;;16.08;85.94
51067;BME280;37112;45.892;-123.962;2022-08-01T07:55:16;101428.99;;;16.07;85.89
51067;BME280;37112;45.892;-123.962;2022-08-01T07:57:29;101430.52;;;16.06;85.89
51067;BME280;37112;45.892;-123.962;2022-08-01T07:59:42;101432.49;;;16.06;86.07
51067;BME280;37112;45.892;-123.962;2022-08-01T08:01:55;101441.89;;;16.07;86.22
51067;BME280;37112;45.892;-123.962;2022-08-01T08:04:09;101441.81;;;16.08;86.17
51067;BME280;37112;45.892;-123.962;2022-08-01T08:06:22;101435.17;;;16.08;86.02
51067;BME280;37112;45.892;-123.962;2022-08-01T08:08:35;101432.75;;;16.07;86.03
51067;BME280;37112;45.892;-123.962;2022-08-01T08:10:48;101441.40;;;16.06;86.05
51067;BME280;37112;45.892;-123.962;2022-08-01T08:13:02;101444.16;;;16.05;85.92
51067;BME280;37112;45.892;-123.962;2022-08-01T08:15:17;101445.41;;;16.06;86.14
51067;BME280;37112;45.892;-123.962;2022-08-01T08:17:30;101446.00;;;16.05;85.97
51067;BME280;37112;45.892;-123.962;2022-08-01T08:19:44;101444.17;;;16.03;85.95
51067;BME280;37112;45.892;-123.962;2022-08-01T08:21:57;101443.00;;;16.02;86.00
51067;BME280;37112;45.892;-123.962;2022-08-01T08:24:11;101442.54;;;16.01;86.02
51067;BME280;37112;45.892;-123.962;2022-08-01T08:26:35;101438.48;;;16.02;86.21
51067;BME280;37112;45.892;-123.962;2022-08-01T08:28:48;101432.70;;;16.03;86.16
51067;BME280;37112;45.892;-123.962;2022-08-01T08:31:01;101428.21;;;16.03;86.15
51067;BME280;37112;45.892;-123.962;2022-08-01T08:33:14;101420.52;;;16.03;86.06
51067;BME280;37112;45.892;-123.962;2022-08-01T08:35:28;101428.38;;;16.01;86.17
51067;BME280;37112;45.892;-123.962;2022-08-01T08:38:01;101433.06;;;16.01;86.35
51067;BME280;37112;45.892;-123.962;2022-08-01T08:40:16;101436.77;;;16.01;86.49
51067;BME280;37112;45.892;-123.962;2022-08-01T08:42:30;101432.72;;;16.03;86.44
51067;BME280;37112;45.892;-123.962;2022-08-01T08:44:43;101430.38;;;16.03;86.31
51067;BME280;37112;45.892;-123.962;2022-08-01T08:46:57;101437.54;;;16.03;86.38
51067;BME280;37112;45.892;-123.962;2022-08-01T08:49:15;101432.73;;;16.03;86.34
51067;BME280;37112;45.892;-123.962;2022-08-01T08:51:29;101425.80;;;16.02;86.24
51067;BME280;37112;45.892;-123.962;2022-08-01T08:53:43;101427.93;;;16.00;86.07
51067;BME280;37112;45.892;-123.962;2022-08-01T08:55:57;101428.40;;;15.99;86.11
51067;BME280;37112;45.892;-123.962;2022-08-01T08:58:12;101431.46;;;15.99;86.23
51067;BME280;37112;45.892;-123.962;2022-08-01T09:00:25;101436.48;;;15.98;86.20
51067;BME280;37112;45.892;-123.962;2022-08-01T09:02:38;101436.98;;;15.99;86.35
51067;BME280;37112;45.892;-123.962;2022-08-01T09:04:53;101435.22;;;15.99;86.21
51067;BME280;37112;45.892;-123.962;2022-08-01T09:07:07;101437.10;;;15.98;86.05
51067;BME280;37112;45.892;-123.962;2022-08-01T09:09:21;101437.45;;;15.98;86.08
51067;BME280;37112;45.892;-123.962;2022-08-01T09:11:34;101442.96;;;15.98;86.07
51067;BME280;37112;45.892;-123.962;2022-08-01T09:14:04;101454.62;;;15.98;86.22
51067;BME280;37112;45.892;-123.962;2022-08-01T09:16:20;101457.05;;;15.99;86.38
51067;BME280;37112;45.892;-123.962;2022-08-01T09:18:36;101456.86;;;15.99;86.47
51067;BME280;37112;45.892;-123.962;2022-08-01T09:20:51;101458.91;;;16.00;86.59
51067;BME280;37112;45.892;-123.962;2022-08-01T09:23:04;101458.83;;;16.01;86.60
51067;BME280;37112;45.892;-123.962;2022-08-01T09:25:17;101460.59;;;16.01;86.56
51067;BME280;37112;45.892;-123.962;2022-08-01T09:27:38;101467.70;;;16.02;86.64
51067;BME280;37112;45.892;-123.962;2022-08-01T09:29:55;101469.21;;;16.04;86.69
51067;BME280;37112;45.892;-123.962;2022-08-01T09:32:20;101469.98;;;16.05;86.50
51067;BME280;37112;45.892;-123.962;2022-08-01T09:34:34;101464.84;;;16.05;86.49
51067;BME280;37112;45.892;-123.962;2022-08-01T09:36:50;101461.14;;;16.06;86.55
51067;BME280;37112;45.892;-123.962;2022-08-01T09:39:14;101464.10;;;16.07;86.49
51067;BME280;37112;45.892;-123.962;2022-08-01T09:41:33;101457.52;;;16.04;86.34
51067;BME280;37112;45.892;-123.962;2022-08-01T09:43:52;101455.73;;;16.02;86.33
51067;BME280;37112;45.892;-123.962;2022-08-01T09:46:11;101463.59;;;16.00;86.02
51067;BME280;37112;45.892;-123.962;2022-08-01T09:48:24;101465.75;;;15.95;85.79
51067;BME280;37112;45.892;-123.962;2022-08-01T09:50:44;101468.59;;;15.93;85.93
51067;BME280;37112;45.892;-123.962;2022-08-01T09:52:57;101462.69;;;15.89;85.84
51067;BME280;37112;45.892;-123.962;2022-08-01T09:55:11;101471.63;;;15.84;85.83
51067;BME280;37112;45.892;-123.962;2022-08-01T09:57:25;101473.08;;;15.79;85.99
51067;BME280;37112;45.892;-123.962;2022-08-01T09:59:40;101481.48;;;15.79;86.07
51067;BME280;37112;45.892;-123.962;2022-08-01T10:02:08;101483.81;;;15.77;85.97
51067;BME280;37112;45.892;-123.962;2022-08-01T10:04:23;101484.56;;;15.74;86.04
51067;BME280;37112;45.892;-123.962;2022-08-01T10:06:38;101488.23;;;15.73;86.14
51067;BME280;37112;45.892;-123.962;2022-08-01T10:08:53;101483.37;;;15.74;86.19
51067;BME280;37112;45.892;-123.962;2022-08-01T10:11:10;101484.41;;;15.74;86.27
51067;BME280;37112;45.892;-123.962;2022-08-01T10:13:25;101487.30;;;15.76;86.49
51067;BME280;37112;45.892;-123.962;2022-08-01T10:15:45;101488.83;;;15.77;86.48
51067;BME280;37112;45.892;-123.962;2022-08-01T10:18:00;101489.27;;;15.78;86.39
51067;BME280;37112;45.892;-123.962;2022-08-01T10:20:31;101494.52;;;15.80;86.50
51067;BME280;37112;45.892;-123.962;2022-08-01T10:22:46;101500.84;;;15.81;86.57
51067;BME280;37112;45.892;-123.962;2022-08-01T10:25:04;101503.43;;;15.83;86.46
51067;BME280;37112;45.892;-123.962;2022-08-01T10:27:22;101504.04;;;15.84;86.48
51067;BME280;37112;45.892;-123.962;2022-08-01T10:29:50;101505.02;;;15.85;86.37
51067;BME280;37112;45.892;-123.962;2022-08-01T10:32:17;101500.81;;;15.84;86.19
51067;BME280;37112;45.892;-123.962;2022-08-01T10:34:33;101500.20;;;15.82;86.01
51067;BME280;37112;45.892;-123.962;2022-08-01T10:36:52;101502.30;;;15.81;85.90
51067;BME280;37112;45.892;-123.962;2022-08-01T10:39:07;101495.44;;;15.79;85.95
51067;BME280;37112;45.892;-123.962;2022-08-01T10:41:29;101495.40;;;15.77;85.93
51067;BME280;37112;45.892;-123.962;2022-08-01T10:43:44;101495.91;;;15.76;85.87
51067;BME280;37112;45.892;-123.962;2022-08-01T10:45:58;101495.84;;;15.75;85.88
51067;BME280;37112;45.892;-123.962;2022-08-01T10:48:16;101489.18;;;15.73;85.86
51067;BME280;37112;45.892;-123.962;2022-08-01T10:50:35;101483.69;;;15.72;85.96
51067;BME280;37112;45.892;-123.962;2022-08-01T10:53:06;101483.27;;;15.70;86.12
51067;BME280;37112;45.892;-123.962;2022-08-01T10:55:48;101491.48;;;15.68;86.29
51067;BME280;37112;45.892;-123.962;2022-08-01T10:58:10;101498.11;;;15.68;86.50
51067;BME280;37112;45.892;-123.962;2022-08-01T11:00:24;101502.89;;;15.69;86.68
51067;BME280;37112;45.892;-123.962;2022-08-01T11:02:38;101508.27;;;15.69;86.63
51067;BME280;37112;45.892;-123.962;2022-08-01T11:04:57;101508.63;;;15.69;86.55
51067;BME280;37112;45.892;-123.962;2022-08-01T11:07:17;101514.02;;;15.68;86.71
51067;BME280;37112;45.892;-123.962;2022-08-01T11:09:41;101522.52;;;15.70;86.93
51067;BME280;37112;45.892;-123.962;2022-08-01T11:12:05;101528.08;;;15.72;87.08
51067;BME280;37112;45.892;-123.962;2022-08-01T11:14:31;101530.41;;;15.74;87.17
51067;BME280;37112;45.892;-123.962;2022-08-01T11:17:32;101529.05;;;15.76;87.08
51067;BME280;37112;45.892;-123.962;2022-08-01T11:20:11;101519.81;;;15.77;87.27
51067;BME280;37112;45.892;-123.962;2022-08-01T11:22:25;101514.17;;;15.78;87.24
51067;BME280;37112;45.892;-123.962;2022-08-01T11:24:57;101520.38;;;15.79;87.16